createdAt,value
2023-03-08T00:00:12.448Z,100.00
2023-03-08T00:02:59.801Z,100.00
2023-03-08T00:05:27.453Z,100.00
2023-03-08T00:07:55.330Z,100.00
2023-03-08T00:10:23.232Z,100.00
2023-03-08T00:12:50.749Z,100.00
2023-03-08T00:15:19.461Z,100.00
2023-03-08T00:17:47.165Z,100.00
2023-03-08T00:20:15.282Z,100.00
2023-03-08T00:22:43.046Z,100.00
2023-03-08T00:25:11.232Z,100.00
2023-03-08T00:27:38.821Z,100.00
2023-03-08T00:30:07.031Z,100.00
2023-03-08T00:32:34.563Z,100.00
2023-03-08T00:35:02.249Z,100.00
2023-03-08T00:37:29.642Z,100.00
2023-03-08T00:39:57.167Z,100.00
2023-03-08T00:42:24.777Z,100.00
2023-03-08T00:44:53.065Z,100.00
2023-03-08T00:47:20.366Z,100.00
2023-03-08T00:49:47.918Z,100.00
2023-03-08T00:52:15.247Z,100.00
2023-03-08T00:54:44.882Z,100.00
2023-03-08T00:57:12.699Z,100.00
2023-03-08T00:59:40.268Z,100.00
2023-03-08T01:02:08.049Z,100.00
2023-03-08T01:04:35.800Z,100.00
2023-03-08T01:07:03.060Z,100.00
2023-03-08T01:09:31.399Z,100.00
2023-03-08T01:11:58.746Z,100.00
2023-03-08T01:14:26.729Z,100.00
2023-03-08T01:16:54.118Z,100.00
2023-03-08T01:19:21.930Z,100.00
2023-03-08T01:21:49.293Z,100.00
2023-03-08T01:24:17.611Z,100.00
2023-03-08T01:26:45.251Z,100.00
2023-03-08T01:29:12.929Z,100.00
2023-03-08T01:31:40.040Z,100.00
2023-03-08T01:34:07.757Z,100.00
2023-03-08T01:36:34.928Z,100.00
2023-03-08T01:39:02.597Z,100.00
2023-03-08T01:41:31.503Z,100.00
2023-03-08T01:43:59.568Z,100.00
2023-03-08T01:46:27.003Z,100.00
2023-03-08T01:49:26.427Z,100.00
2023-03-08T01:52:04.194Z,100.00
2023-03-08T01:54:36.431Z,100.00
2023-03-08T01:57:12.118Z,100.00
2023-03-08T01:59:40.200Z,100.00
2023-03-08T02:02:08.010Z,100.00
2023-03-08T02:04:36.070Z,100.00
2023-03-08T02:07:03.316Z,100.00
2023-03-08T02:09:31.343Z,100.00
2023-03-08T02:12:01.422Z,100.00
2023-03-08T02:14:30.382Z,100.00
2023-03-08T02:16:57.751Z,100.00
2023-03-08T02:19:44.045Z,100.00
2023-03-08T02:22:12.940Z,100.00
2023-03-08T02:24:40.745Z,100.00
2023-03-08T02:27:13.553Z,100.00
2023-03-08T02:29:42.609Z,100.00
2023-03-08T02:32:10.309Z,100.00
2023-03-08T02:34:38.038Z,100.00
2023-03-08T02:37:05.333Z,100.00
2023-03-08T02:39:32.944Z,100.00
2023-03-08T02:42:00.195Z,100.00
2023-03-08T02:44:27.752Z,100.00
2023-03-08T02:46:55.144Z,100.00
2023-03-08T02:49:23.214Z,100.00
2023-03-08T02:51:52.295Z,100.00
2023-03-08T02:54:21.579Z,100.00
2023-03-08T02:56:48.964Z,100.00
2023-03-08T02:59:16.669Z,100.00
2023-03-08T03:01:45.100Z,100.00
2023-03-08T03:04:13.026Z,100.00
2023-03-08T03:06:40.380Z,100.00
2023-03-08T03:09:09.561Z,100.00
2023-03-08T03:11:37.393Z,100.00
2023-03-08T03:14:05.086Z,100.00
2023-03-08T03:16:37.947Z,100.00
2023-03-08T03:19:05.612Z,100.00
2023-03-08T03:21:33.233Z,100.00
2023-03-08T03:24:01.097Z,100.00
2023-03-08T03:26:36.181Z,100.00
2023-03-08T03:29:04.309Z,100.00
2023-03-08T03:31:36.077Z,100.00
2023-03-08T03:34:04.495Z,100.00
2023-03-08T03:36:32.403Z,100.00
2023-03-08T03:39:00.369Z,100.00
2023-03-08T03:41:28.631Z,100.00
2023-03-08T03:44:03.442Z,100.00
2023-03-08T03:46:31.322Z,100.00
2023-03-08T03:49:00.084Z,100.00
2023-03-08T03:51:33.218Z,100.00
2023-03-08T03:54:11.785Z,100.00
2023-03-08T03:56:40.751Z,100.00
2023-03-08T03:59:08.470Z,100.00
2023-03-08T04:01:35.989Z,100.00
2023-03-08T04:04:13.333Z,100.00
2023-03-08T04:06:43.570Z,100.00
2023-03-08T04:09:16.822Z,100.00
2023-03-08T04:11:47.153Z,100.00
2023-03-08T04:14:19.713Z,100.00
2023-03-08T04:16:48.277Z,100.00
2023-03-08T04:19:24.681Z,100.00
2023-03-08T04:21:54.331Z,100.00
2023-03-08T04:24:25.298Z,100.00
2023-03-08T04:26:56.938Z,100.00
2023-03-08T04:29:24.789Z,100.00
2023-03-08T04:31:52.187Z,100.00
2023-03-08T04:34:21.297Z,100.00
2023-03-08T04:36:51.034Z,100.00
2023-03-08T04:39:19.419Z,100.00
2023-03-08T04:41:46.744Z,100.00
2023-03-08T04:44:22.383Z,100.00
2023-03-08T04:46:52.533Z,100.00
2023-03-08T04:49:34.362Z,100.00
2023-03-08T04:52:03.500Z,100.00
2023-03-08T04:54:34.172Z,100.00
2023-03-08T04:57:20.935Z,100.00
2023-03-08T04:59:50.207Z,100.00
2023-03-08T05:02:17.936Z,100.00
2023-03-08T05:04:47.632Z,100.00
2023-03-08T05:07:14.888Z,100.00
2023-03-08T05:09:43.058Z,100.00
2023-03-08T05:12:10.738Z,100.00
2023-03-08T05:14:47.488Z,100.00
2023-03-08T05:17:14.903Z,100.00
2023-03-08T05:19:42.809Z,100.00
2023-03-08T05:22:11.853Z,100.00
2023-03-08T05:24:46.588Z,100.00
2023-03-08T05:27:14.694Z,100.00
2023-03-08T05:29:42.914Z,100.00
2023-03-08T05:32:13.195Z,100.00
2023-03-08T05:34:41.484Z,100.00
2023-03-08T05:37:12.928Z,100.00
2023-03-08T05:39:43.107Z,100.00
2023-03-08T05:42:15.708Z,100.00
2023-03-08T05:44:46.386Z,100.00
2023-03-08T05:47:17.438Z,100.00
2023-03-08T05:49:45.455Z,100.00
2023-03-08T05:52:13.297Z,100.00
2023-03-08T05:54:41.720Z,100.00
2023-03-08T05:57:14.484Z,100.00
2023-03-08T05:59:42.342Z,100.00
2023-03-08T06:02:12.705Z,100.00
2023-03-08T06:04:47.419Z,100.00
2023-03-08T06:07:18.282Z,100.00
2023-03-08T06:09:52.004Z,100.00
2023-03-08T06:12:19.462Z,100.00
2023-03-08T06:14:51.966Z,100.00
2023-03-08T06:17:22.088Z,100.00
2023-03-08T06:19:51.638Z,100.00
2023-03-08T06:22:19.273Z,100.00
2023-03-08T06:24:49.968Z,100.00
2023-03-08T06:27:26.413Z,100.00
2023-03-08T06:29:55.919Z,100.00
2023-03-08T06:32:23.860Z,100.00
2023-03-08T06:34:52.221Z,100.00
2023-03-08T06:37:20.657Z,100.00
2023-03-08T06:39:48.463Z,100.00
2023-03-08T06:42:15.558Z,100.00
2023-03-08T06:44:43.045Z,100.00
2023-03-08T06:47:10.259Z,100.00
2023-03-08T06:49:37.731Z,100.00
2023-03-08T06:52:05.317Z,100.00
2023-03-08T06:54:33.538Z,100.00
2023-03-08T06:57:05.724Z,100.00
2023-03-08T06:59:34.200Z,100.00
2023-03-08T07:02:01.354Z,100.00
2023-03-08T07:04:28.779Z,100.00
2023-03-08T07:06:56.085Z,100.00
2023-03-08T07:09:23.821Z,100.00
2023-03-08T07:11:51.079Z,100.00
2023-03-08T07:14:18.563Z,100.00
2023-03-08T07:16:47.143Z,100.00
2023-03-08T07:19:14.537Z,100.00
2023-03-08T07:21:44.534Z,100.00
2023-03-08T07:24:12.157Z,100.00
2023-03-08T07:26:39.598Z,100.00
2023-03-08T07:29:08.115Z,100.00
2023-03-08T07:31:36.379Z,100.00
2023-03-08T07:34:04.499Z,100.00
2023-03-08T07:36:33.061Z,100.00
2023-03-08T07:39:00.958Z,100.00
2023-03-08T07:41:30.685Z,100.00
2023-03-08T07:43:58.279Z,100.00
2023-03-08T07:46:28.255Z,100.00
2023-03-08T07:48:55.884Z,100.00
2023-03-08T07:51:23.559Z,100.00
2023-03-08T07:53:52.808Z,100.00
2023-03-08T07:56:20.228Z,100.00
2023-03-08T07:58:47.762Z,100.00
2023-03-08T08:01:15.065Z,100.00
2023-03-08T08:03:44.329Z,100.00
2023-03-08T08:06:11.677Z,100.00
2023-03-08T08:08:39.604Z,100.00
2023-03-08T08:11:14.149Z,100.00
2023-03-08T08:13:41.912Z,100.00
2023-03-08T08:16:09.794Z,100.00
2023-03-08T08:18:37.606Z,99.89
2023-03-08T08:21:07.677Z,100.00
2023-03-08T08:23:36.490Z,95.89
2023-03-08T08:26:08.790Z,100.00
2023-03-08T08:28:38.024Z,100.00
2023-03-08T08:31:08.014Z,98.09
2023-03-08T08:33:36.086Z,97.26
2023-03-08T08:36:05.567Z,94.71
2023-03-08T08:38:33.491Z,92.94
2023-03-08T08:41:02.189Z,95.36
2023-03-08T08:43:30.585Z,91.79
2023-03-08T08:45:59.408Z,95.71
2023-03-08T08:48:27.610Z,90.18
2023-03-08T08:50:55.075Z,87.30
2023-03-08T08:53:22.783Z,92.70
2023-03-08T08:55:50.144Z,86.36
2023-03-08T08:58:17.921Z,87.86
2023-03-08T09:00:45.892Z,87.93
2023-03-08T09:03:13.318Z,84.78
2023-03-08T09:05:42.664Z,83.51
2023-03-08T09:08:11.040Z,80.23
2023-03-08T09:10:40.032Z,82.10
2023-03-08T09:13:08.421Z,80.37
2023-03-08T09:15:37.294Z,76.24
2023-03-08T09:18:04.940Z,84.16
2023-03-08T09:20:32.502Z,81.31
2023-03-08T09:23:00.347Z,83.35
2023-03-08T09:25:27.858Z,82.53
2023-03-08T09:27:55.545Z,81.42
2023-03-08T09:30:23.076Z,84.68
2023-03-08T09:32:50.827Z,84.52
2023-03-08T09:35:18.470Z,81.15
2023-03-08T09:37:46.291Z,85.02
2023-03-08T09:40:27.384Z,82.92
2023-03-08T09:42:59.241Z,80.22
2023-03-08T09:45:28.438Z,78.45
2023-03-08T09:48:13.576Z,78.02
2023-03-08T09:50:47.826Z,78.92
2023-03-08T09:53:18.101Z,77.62
2023-03-08T09:55:49.706Z,77.95
2023-03-08T09:58:44.183Z,75.42
2023-03-08T10:01:23.382Z,75.80
2023-03-08T10:03:53.835Z,86.06
2023-03-08T10:06:39.632Z,82.36
2023-03-08T10:09:30.034Z,77.82
2023-03-08T10:12:21.086Z,80.87
2023-03-08T10:14:59.179Z,76.21
2023-03-08T10:17:36.897Z,72.42
2023-03-08T10:20:19.903Z,71.17
2023-03-08T10:22:51.526Z,76.94
2023-03-08T10:25:26.659Z,76.99
2023-03-08T10:27:55.963Z,75.02
2023-03-08T10:30:27.287Z,73.02
2023-03-08T10:32:59.849Z,66.46
2023-03-08T10:35:56.636Z,68.72
2023-03-08T10:38:26.675Z,76.44
2023-03-08T10:41:18.372Z,73.89
2023-03-08T10:43:51.557Z,73.48
2023-03-08T10:46:24.458Z,71.51
2023-03-08T10:48:52.325Z,70.90
2023-03-08T10:51:28.054Z,71.37
2023-03-08T10:53:57.767Z,74.03
2023-03-08T10:56:29.742Z,72.04
2023-03-08T10:58:58.217Z,70.35
2023-03-08T11:01:31.927Z,74.27
2023-03-08T11:04:12.726Z,68.95
2023-03-08T11:06:40.621Z,71.03
2023-03-08T11:09:30.778Z,66.76
2023-03-08T11:11:59.745Z,65.49
2023-03-08T11:14:28.402Z,65.75
2023-03-08T11:17:21.035Z,62.63
2023-03-08T11:20:01.595Z,66.60
2023-03-08T11:22:33.388Z,69.14
2023-03-08T11:25:11.576Z,67.68
2023-03-08T11:27:54.550Z,70.65
2023-03-08T11:30:28.422Z,72.21
2023-03-08T11:33:20.730Z,72.58
2023-03-08T11:36:19.802Z,73.01
2023-03-08T11:38:57.982Z,70.84
2023-03-08T11:41:51.095Z,71.88
2023-03-08T11:44:37.167Z,73.42
2023-03-08T11:47:23.383Z,74.03
2023-03-08T11:49:57.203Z,73.93
2023-03-08T11:52:36.550Z,75.18
2023-03-08T11:55:36.952Z,75.25
2023-03-08T11:58:12.624Z,78.72
2023-03-08T12:00:42.587Z,79.63
2023-03-08T12:03:15.362Z,79.81
2023-03-08T12:05:44.759Z,80.63
2023-03-08T12:08:30.765Z,80.57
2023-03-08T12:11:19.731Z,78.53
2023-03-08T12:13:50.555Z,79.58
2023-03-08T12:16:24.338Z,73.82
2023-03-08T12:19:10.565Z,77.23
2023-03-08T12:21:52.684Z,76.51
2023-03-08T12:24:39.415Z,74.81
2023-03-08T12:27:14.056Z,75.75
2023-03-08T12:29:50.292Z,70.51
2023-03-08T12:32:19.183Z,66.90
2023-03-08T12:34:47.957Z,70.85
2023-03-08T12:37:34.410Z,69.79
2023-03-08T12:40:26.945Z,71.31
2023-03-08T12:43:13.806Z,70.54
2023-03-08T12:45:43.342Z,70.78
2023-03-08T12:48:16.495Z,71.16
2023-03-08T12:51:17.168Z,74.21
2023-03-08T12:53:49.048Z,73.32
2023-03-08T12:56:38.976Z,75.69
2023-03-08T12:59:15.645Z,74.13
2023-03-08T13:01:43.551Z,75.70
2023-03-08T13:04:41.496Z,73.79
2023-03-08T13:07:12.500Z,75.61
2023-03-08T13:09:43.162Z,76.10
2023-03-08T13:12:16.515Z,73.86
2023-03-08T13:14:46.910Z,74.35
2023-03-08T13:17:33.132Z,73.56
2023-03-08T13:20:41.952Z,78.10
2023-03-08T13:23:15.289Z,73.22
2023-03-08T13:25:43.006Z,76.57
2023-03-08T13:28:12.711Z,73.18
2023-03-08T13:30:49.830Z,71.45
2023-03-08T13:33:23.890Z,73.63
2023-03-08T13:36:14.498Z,73.23
2023-03-08T13:38:42.163Z,72.58
2023-03-08T13:41:09.808Z,71.46
2023-03-08T13:43:37.022Z,69.96
2023-03-08T13:46:06.701Z,69.90
2023-03-08T13:48:35.572Z,72.65
2023-03-08T13:51:03.941Z,73.33
2023-03-08T13:53:36.850Z,71.89
2023-03-08T13:56:05.882Z,70.97
2023-03-08T13:58:39.524Z,70.29
2023-03-08T14:01:16.010Z,69.21
2023-03-08T14:03:44.061Z,71.40
2023-03-08T14:06:36.825Z,72.05
2023-03-08T14:09:05.393Z,70.43
2023-03-08T14:11:35.300Z,71.64
2023-03-08T14:14:04.923Z,71.07
2023-03-08T14:16:34.797Z,72.86
2023-03-08T14:19:22.475Z,74.02
2023-03-08T14:22:04.624Z,74.25
2023-03-08T14:24:34.194Z,71.57
2023-03-08T14:27:04.574Z,71.21
2023-03-08T14:29:34.671Z,73.32
2023-03-08T14:32:11.074Z,73.76
2023-03-08T14:34:41.648Z,74.14
2023-03-08T14:37:12.091Z,73.08
2023-03-08T14:39:44.368Z,76.15
2023-03-08T14:42:33.712Z,75.00
2023-03-08T14:45:04.296Z,77.24
2023-03-08T14:47:34.003Z,78.38
2023-03-08T14:50:04.242Z,77.95
2023-03-08T14:52:34.501Z,77.24
2023-03-08T14:55:03.648Z,77.88
2023-03-08T14:57:31.502Z,74.93
2023-03-08T15:00:24.985Z,76.21
2023-03-08T15:02:52.652Z,76.48
2023-03-08T15:05:28.677Z,77.95
2023-03-08T15:07:59.527Z,76.83
2023-03-08T15:10:37.261Z,75.42
2023-03-08T15:13:06.149Z,75.40
2023-03-08T15:15:33.777Z,75.39
2023-03-08T15:18:01.454Z,76.41
2023-03-08T15:20:28.945Z,76.64
2023-03-08T15:23:00.186Z,77.23
2023-03-08T15:25:36.238Z,77.76
2023-03-08T15:28:05.800Z,80.71
2023-03-08T15:30:33.521Z,80.73
2023-03-08T15:33:02.503Z,81.63
2023-03-08T15:35:30.147Z,82.12
2023-03-08T15:37:57.784Z,84.06
2023-03-08T15:40:29.013Z,83.35
2023-03-08T15:42:56.935Z,83.71
2023-03-08T15:45:24.519Z,84.97
2023-03-08T15:47:59.348Z,85.41
2023-03-08T15:50:27.550Z,85.78
2023-03-08T15:52:55.874Z,84.95
2023-03-08T15:55:24.623Z,85.57
2023-03-08T15:57:52.418Z,85.35
2023-03-08T16:00:22.089Z,85.46
2023-03-08T16:02:50.258Z,85.99
2023-03-08T16:05:19.849Z,87.03
2023-03-08T16:07:47.397Z,87.71
2023-03-08T16:10:15.677Z,87.71
2023-03-08T16:12:43.392Z,87.01
2023-03-08T16:15:11.157Z,88.17
2023-03-08T16:17:39.106Z,87.74
2023-03-08T16:20:06.842Z,87.76
2023-03-08T16:22:35.078Z,88.42
2023-03-08T16:25:02.617Z,88.78
2023-03-08T16:27:38.288Z,89.57
2023-03-08T16:30:06.603Z,89.81
2023-03-08T16:32:34.521Z,90.22
2023-03-08T16:35:02.065Z,89.59
2023-03-08T16:37:29.838Z,89.01
2023-03-08T16:40:02.401Z,90.18
2023-03-08T16:42:30.316Z,90.69
2023-03-08T16:44:57.735Z,90.70
2023-03-08T16:47:26.866Z,91.36
2023-03-08T16:49:54.298Z,91.45
2023-03-08T16:52:22.446Z,92.82
2023-03-08T16:54:49.791Z,93.47
2023-03-08T16:57:19.736Z,94.41
2023-03-08T16:59:47.824Z,94.92
2023-03-08T17:02:18.011Z,95.97
2023-03-08T17:04:46.267Z,96.57
2023-03-08T17:07:14.482Z,96.17
2023-03-08T17:09:41.955Z,97.73
2023-03-08T17:12:09.912Z,98.19
2023-03-08T17:14:37.571Z,97.22
2023-03-08T17:17:05.324Z,99.57
2023-03-08T17:19:33.125Z,100.00
2023-03-08T17:22:00.818Z,98.86
2023-03-08T17:24:30.675Z,99.71
2023-03-08T17:26:58.975Z,99.43
2023-03-08T17:29:26.812Z,100.00
2023-03-08T17:31:54.705Z,100.00
2023-03-08T17:34:23.222Z,100.00
2023-03-08T17:36:51.400Z,100.00
2023-03-08T17:39:18.932Z,100.00
2023-03-08T17:41:46.928Z,100.00
2023-03-08T17:44:14.703Z,100.00
2023-03-08T17:46:42.682Z,100.00
2023-03-08T17:49:12.237Z,100.00
2023-03-08T17:51:39.761Z,100.00
2023-03-08T17:54:07.702Z,100.00
2023-03-08T17:56:36.701Z,100.00
2023-03-08T17:59:04.512Z,100.00
2023-03-08T18:01:32.692Z,100.00
2023-03-08T18:04:00.616Z,100.00
2023-03-08T18:06:34.289Z,100.00
2023-03-08T18:09:04.611Z,100.00
2023-03-08T18:11:37.699Z,100.00
2023-03-08T18:14:06.076Z,100.00
2023-03-08T18:16:34.612Z,100.00
2023-03-08T18:19:03.083Z,100.00
2023-03-08T18:21:33.225Z,100.00
2023-03-08T18:24:00.863Z,100.00
2023-03-08T18:26:28.529Z,100.00
2023-03-08T18:28:56.094Z,100.00
2023-03-08T18:31:26.425Z,100.00
2023-03-08T18:33:55.135Z,100.00
2023-03-08T18:36:23.989Z,100.00
2023-03-08T18:38:52.288Z,100.00
2023-03-08T18:41:22.599Z,100.00
2023-03-08T18:43:51.380Z,100.00
2023-03-08T18:46:18.972Z,100.00
2023-03-08T18:48:52.172Z,100.00
2023-03-08T18:51:19.847Z,100.00
2023-03-08T18:53:47.144Z,100.00
2023-03-08T18:56:14.856Z,100.00
2023-03-08T18:58:42.205Z,100.00
2023-03-08T19:01:15.250Z,100.00
2023-03-08T19:03:43.126Z,100.00
2023-03-08T19:06:11.583Z,100.00
2023-03-08T19:08:39.108Z,100.00
2023-03-08T19:11:20.818Z,100.00
2023-03-08T19:13:48.679Z,100.00
2023-03-08T19:16:31.967Z,100.00
2023-03-08T19:19:02.582Z,100.00
2023-03-08T19:21:35.903Z,100.00
2023-03-08T19:24:03.809Z,100.00
2023-03-08T19:26:34.571Z,100.00
2023-03-08T19:29:24.804Z,100.00
2023-03-08T19:31:55.590Z,100.00
2023-03-08T19:34:25.605Z,100.00
2023-03-08T19:36:54.165Z,100.00
2023-03-08T19:39:24.300Z,100.00
2023-03-08T19:41:53.411Z,100.00
2023-03-08T19:44:21.581Z,100.00
2023-03-08T19:46:50.617Z,100.00
2023-03-08T19:49:21.164Z,100.00
2023-03-08T19:51:51.093Z,100.00
2023-03-08T19:54:19.328Z,100.00
2023-03-08T19:56:47.672Z,100.00
2023-03-08T19:59:15.494Z,100.00
2023-03-08T20:01:44.881Z,100.00
2023-03-08T20:04:12.738Z,100.00
2023-03-08T20:06:46.481Z,100.00
2023-03-08T20:09:18.600Z,100.00
2023-03-08T20:11:46.332Z,100.00
2023-03-08T20:14:13.677Z,100.00
2023-03-08T20:16:41.240Z,100.00
2023-03-08T20:19:08.508Z,100.00
2023-03-08T20:21:36.323Z,100.00
2023-03-08T20:24:04.687Z,100.00
2023-03-08T20:26:35.276Z,100.00
2023-03-08T20:29:02.880Z,100.00
2023-03-08T20:31:33.054Z,100.00
2023-03-08T20:34:00.890Z,100.00
2023-03-08T20:36:30.114Z,100.00
2023-03-08T20:38:58.485Z,100.00
2023-03-08T20:41:26.668Z,100.00
2023-03-08T20:43:55.659Z,100.00
2023-03-08T20:46:33.288Z,100.00
2023-03-08T20:49:01.638Z,100.00
2023-03-08T20:51:29.503Z,100.00
2023-03-08T20:53:57.790Z,100.00
2023-03-08T20:56:26.450Z,100.00
2023-03-08T20:58:56.810Z,100.00
2023-03-08T21:01:30.797Z,100.00
2023-03-08T21:03:58.566Z,100.00
2023-03-08T21:06:28.723Z,100.00
2023-03-08T21:08:56.912Z,100.00
2023-03-08T21:11:24.986Z,100.00
2023-03-08T21:13:53.298Z,100.00
2023-03-08T21:16:23.165Z,100.00
2023-03-08T21:18:51.785Z,100.00
2023-03-08T21:21:24.444Z,100.00
2023-03-08T21:23:54.571Z,100.00
2023-03-08T21:26:24.872Z,100.00
2023-03-08T21:28:53.445Z,100.00
2023-03-08T21:31:21.385Z,100.00
2023-03-08T21:33:48.815Z,100.00
2023-03-08T21:36:17.191Z,100.00
2023-03-08T21:38:44.615Z,100.00
2023-03-08T21:41:20.292Z,100.00
2023-03-08T21:43:48.252Z,100.00
2023-03-08T21:46:16.879Z,100.00
2023-03-08T21:48:44.602Z,100.00
2023-03-08T21:51:13.564Z,100.00
2023-03-08T21:53:41.775Z,100.00
2023-03-08T21:56:11.563Z,100.00
2023-03-08T21:58:40.291Z,100.00
2023-03-08T22:01:18.567Z,100.00
2023-03-08T22:03:46.355Z,100.00
2023-03-08T22:06:14.931Z,100.00
2023-03-08T22:08:42.473Z,100.00
2023-03-08T22:11:10.497Z,100.00
2023-03-08T22:13:38.780Z,100.00
2023-03-08T22:16:07.292Z,100.00
2023-03-08T22:18:34.757Z,100.00
2023-03-08T22:21:02.336Z,100.00
2023-03-08T22:23:29.778Z,100.00
2023-03-08T22:25:57.420Z,100.00
2023-03-08T22:28:24.933Z,100.00
2023-03-08T22:30:53.044Z,100.00
2023-03-08T22:33:20.821Z,100.00
2023-03-08T22:35:48.867Z,100.00
2023-03-08T22:38:18.394Z,100.00
2023-03-08T22:40:46.109Z,100.00
2023-03-08T22:43:13.436Z,100.00
2023-03-08T22:45:41.328Z,100.00
2023-03-08T22:48:09.440Z,100.00
2023-03-08T22:50:37.477Z,100.00
2023-03-08T22:53:04.977Z,100.00
2023-03-08T22:55:32.980Z,100.00
2023-03-08T22:58:00.342Z,100.00
2023-03-08T23:00:28.192Z,100.00
2023-03-08T23:02:57.789Z,100.00
2023-03-08T23:05:25.651Z,100.00
2023-03-08T23:07:53.557Z,100.00
2023-03-08T23:10:21.643Z,100.00
2023-03-08T23:12:48.965Z,100.00
2023-03-08T23:16:12.975Z,100.00
2023-03-08T23:18:58.916Z,100.00
2023-03-08T23:21:30.001Z,100.00
2023-03-08T23:27:39.055Z,100.00
2023-03-08T23:30:07.898Z,100.00
2023-03-08T23:35:49.122Z,100.00
2023-03-08T23:38:16.913Z,100.00
2023-03-08T23:40:44.274Z,100.00
2023-03-08T23:43:11.796Z,100.00
2023-03-08T23:45:40.326Z,100.00
2023-03-08T23:48:08.226Z,100.00
2023-03-08T23:50:35.543Z,100.00
2023-03-08T23:53:03.112Z,100.00
2023-03-08T23:55:30.355Z,100.00
2023-03-08T23:57:57.870Z,100.00
